sensor_id;sensor_type;location;lat;lon;timestamp;temperature;humidity
80367;DHT22;70058;42.660;23.366;2023-06-10T00:01:58;20.40;60.80
80367;DHT22;70058;42.660;23.366;2023-06-10T00:04:26;20.40;61.10
80367;DHT22;70058;42.660;23.366;2023-06-10T00:06:52;20.30;61.30
80367;DHT22;70058;42.660;23.366;2023-06-10T00:09:19;20.30;61.40
80367;DHT22;70058;42.660;23.366;2023-06-10T00:11:47;20.20;61.40
80367;DHT22;70058;42.660;23.366;2023-06-10T00:14:13;20.30;61.60
80367;DHT22;70058;42.660;23.366;2023-06-10T00:16:38;20.30;61.70
80367;DHT22;70058;42.660;23.366;2023-06-10T00:19:04;20.20;61.90
80367;DHT22;70058;42.660;23.366;2023-06-10T00:21:31;20.20;62.20
80367;DHT22;70058;42.660;23.366;2023-06-10T00:24:07;20.10;62.30
80367;DHT22;70058;42.660;23.366;2023-06-10T00:26:38;20.20;62.30
80367;DHT22;70058;42.660;23.366;2023-06-10T00:29:03;20.20;62.30
80367;DHT22;70058;42.660;23.366;2023-06-10T00:31:29;20.20;62.40
80367;DHT22;70058;42.660;23.366;2023-06-10T00:33:55;20.20;62.40
80367;DHT22;70058;42.660;23.366;2023-06-10T00:36:21;20.30;62.50
80367;DHT22;70058;42.660;23.366;2023-06-10T00:38:47;20.40;62.40
80367;DHT22;70058;42.660;23.366;2023-06-10T00:41:13;20.40;62.30
80367;DHT22;70058;42.660;23.366;2023-06-10T00:43:39;20.30;62.30
80367;DHT22;70058;42.660;23.366;2023-06-10T00:46:04;20.40;62.30
80367;DHT22;70058;42.660;23.366;2023-06-10T00:48:30;20.40;62.20
80367;DHT22;70058;42.660;23.366;2023-06-10T00:50:56;20.40;62.10
80367;DHT22;70058;42.660;23.366;2023-06-10T00:53:23;20.50;62.10
80367;DHT22;70058;42.660;23.366;2023-06-10T00:55:48;20.50;62.10
80367;DHT22;70058;42.660;23.366;2023-06-10T00:58:15;20.40;62.00
80367;DHT22;70058;42.660;23.366;2023-06-10T01:00:41;20.50;62.10
80367;DHT22;70058;42.660;23.366;2023-06-10T01:03:06;20.50;62.00
80367;DHT22;70058;42.660;23.366;2023-06-10T01:05:35;20.50;61.90
80367;DHT22;70058;42.660;23.366;2023-06-10T01:10:51;20.60;61.70
80367;DHT22;70058;42.660;23.366;2023-06-10T01:13:18;20.60;61.70
80367;DHT22;70058;42.660;23.366;2023-06-10T01:15:46;20.60;61.60
80367;DHT22;70058;42.660;23.366;2023-06-10T01:18:11;20.60;61.60
80367;DHT22;70058;42.660;23.366;2023-06-10T01:20:44;20.50;61.80
80367;DHT22;70058;42.660;23.366;2023-06-10T01:23:11;20.50;62.10
80367;DHT22;70058;42.660;23.366;2023-06-10T01:25:43;20.50;62.10
80367;DHT22;70058;42.660;23.366;2023-06-10T01:33:36;20.60;62.50
80367;DHT22;70058;42.660;23.366;2023-06-10T01:36:04;20.60;62.60
80367;DHT22;70058;42.660;23.366;2023-06-10T01:38:33;20.60;62.60
80367;DHT22;70058;42.660;23.366;2023-06-10T01:41:03;20.60;62.60
80367;DHT22;70058;42.660;23.366;2023-06-10T01:43:33;20.60;62.60
80367;DHT22;70058;42.660;23.366;2023-06-10T01:45:58;20.60;62.80
80367;DHT22;70058;42.660;23.366;2023-06-10T01:48:24;20.60;62.90
80367;DHT22;70058;42.660;23.366;2023-06-10T01:50:50;20.60;62.90
80367;DHT22;70058;42.660;23.366;2023-06-10T01:53:16;20.60;63.00
80367;DHT22;70058;42.660;23.366;2023-06-10T01:55:41;20.60;62.90
80367;DHT22;70058;42.660;23.366;2023-06-10T01:58:07;20.60;62.80
80367;DHT22;70058;42.660;23.366;2023-06-10T02:00:32;20.50;62.60
80367;DHT22;70058;42.660;23.366;2023-06-10T02:02:58;20.60;62.80
80367;DHT22;70058;42.660;23.366;2023-06-10T02:05:24;20.60;62.80
80367;DHT22;70058;42.660;23.366;2023-06-10T02:07:50;20.60;62.80
80367;DHT22;70058;42.660;23.366;2023-06-10T02:10:16;20.50;62.90
80367;DHT22;70058;42.660;23.366;2023-06-10T02:12:42;20.50;62.80
80367;DHT22;70058;42.660;23.366;2023-06-10T02:15:07;20.50;62.80
80367;DHT22;70058;42.660;23.366;2023-06-10T02:17:33;20.60;62.80
80367;DHT22;70058;42.660;23.366;2023-06-10T02:19:59;20.60;62.80
80367;DHT22;70058;42.660;23.366;2023-06-10T02:22:25;20.50;62.80
80367;DHT22;70058;42.660;23.366;2023-06-10T02:24:51;20.50;62.80
80367;DHT22;70058;42.660;23.366;2023-06-10T02:27:18;20.50;62.80
80367;DHT22;70058;42.660;23.366;2023-06-10T02:29:44;20.50;62.90
80367;DHT22;70058;42.660;23.366;2023-06-10T02:32:09;20.50;62.80
80367;DHT22;70058;42.660;23.366;2023-06-10T02:34:35;20.60;62.80
80367;DHT22;70058;42.660;23.366;2023-06-10T02:37:02;20.50;62.70
80367;DHT22;70058;42.660;23.366;2023-06-10T02:39:28;20.50;62.90
80367;DHT22;70058;42.660;23.366;2023-06-10T02:41:53;20.60;62.90
80367;DHT22;70058;42.660;23.366;2023-06-10T02:44:19;20.50;62.90
80367;DHT22;70058;42.660;23.366;2023-06-10T02:46:45;20.60;62.80
80367;DHT22;70058;42.660;23.366;2023-06-10T02:49:11;20.60;62.70
80367;DHT22;70058;42.660;23.366;2023-06-10T02:51:38;20.60;62.90
80367;DHT22;70058;42.660;23.366;2023-06-10T02:54:04;20.60;62.90
80367;DHT22;70058;42.660;23.366;2023-06-10T02:56:30;20.60;63.10
80367;DHT22;70058;42.660;23.366;2023-06-10T02:58:57;20.60;63.00
80367;DHT22;70058;42.660;23.366;2023-06-10T03:01:23;20.60;63.10
80367;DHT22;70058;42.660;23.366;2023-06-10T03:03:48;20.60;63.10
80367;DHT22;70058;42.660;23.366;2023-06-10T03:06:16;20.60;63.10
80367;DHT22;70058;42.660;23.366;2023-06-10T03:08:42;20.60;62.90
80367;DHT22;70058;42.660;23.366;2023-06-10T03:11:08;20.60;62.80
80367;DHT22;70058;42.660;23.366;2023-06-10T03:13:34;20.60;62.80
80367;DHT22;70058;42.660;23.366;2023-06-10T03:15:59;20.40;63.80
80367;DHT22;70058;42.660;23.366;2023-06-10T03:18:26;20.50;64.00
80367;DHT22;70058;42.660;23.366;2023-06-10T03:20:52;20.50;64.00
80367;DHT22;70058;42.660;23.366;2023-06-10T03:23:18;20.50;64.40
80367;DHT22;70058;42.660;23.366;2023-06-10T03:25:44;20.50;64.70
80367;DHT22;70058;42.660;23.366;2023-06-10T03:28:10;20.60;65.20
80367;DHT22;70058;42.660;23.366;2023-06-10T03:30:36;20.60;65.40
80367;DHT22;70058;42.660;23.366;2023-06-10T03:33:01;20.60;65.60
80367;DHT22;70058;42.660;23.366;2023-06-10T03:35:27;20.50;65.60
80367;DHT22;70058;42.660;23.366;2023-06-10T03:37:53;20.50;66.10
80367;DHT22;70058;42.660;23.366;2023-06-10T03:40:18;20.40;66.30
80367;DHT22;70058;42.660;23.366;2023-06-10T03:42:44;20.40;66.00
80367;DHT22;70058;42.660;23.366;2023-06-10T03:45:10;20.40;66.00
80367;DHT22;70058;42.660;23.366;2023-06-10T03:47:37;20.40;65.50
80367;DHT22;70058;42.660;23.366;2023-06-10T03:50:07;20.40;65.50
80367;DHT22;70058;42.660;23.366;2023-06-10T03:52:33;20.40;65.50
80367;DHT22;70058;42.660;23.366;2023-06-10T03:54:59;20.50;64.80
80367;DHT22;70058;42.660;23.366;2023-06-10T03:57:25;20.50;64.60
80367;DHT22;70058;42.660;23.366;2023-06-10T03:59:51;20.50;64.50
80367;DHT22;70058;42.660;23.366;2023-06-10T04:02:17;20.50;64.20
80367;DHT22;70058;42.660;23.366;2023-06-10T04:04:43;20.60;63.30
80367;DHT22;70058;42.660;23.366;2023-06-10T04:07:09;20.50;62.90
80367;DHT22;70058;42.660;23.366;2023-06-10T04:09:36;20.60;62.90
80367;DHT22;70058;42.660;23.366;2023-06-10T04:12:03;20.60;62.90
80367;DHT22;70058;42.660;23.366;2023-06-10T04:14:31;20.60;62.90
80367;DHT22;70058;42.660;23.366;2023-06-10T04:16:57;20.60;63.00
80367;DHT22;70058;42.660;23.366;2023-06-10T04:19:22;20.60;62.90
80367;DHT22;70058;42.660;23.366;2023-06-10T04:21:48;20.60;62.70
80367;DHT22;70058;42.660;23.366;2023-06-10T04:24:14;20.60;62.70
80367;DHT22;70058;42.660;23.366;2023-06-10T04:26:39;20.60;63.10
80367;DHT22;70058;42.660;23.366;2023-06-10T04:29:05;20.70;62.40
80367;DHT22;70058;42.660;23.366;2023-06-10T04:31:30;20.80;62.30
80367;DHT22;70058;42.660;23.366;2023-06-10T04:33:59;20.50;62.70
80367;DHT22;70058;42.660;23.366;2023-06-10T04:36:26;20.60;63.00
80367;DHT22;70058;42.660;23.366;2023-06-10T04:38:51;20.70;63.20
80367;DHT22;70058;42.660;23.366;2023-06-10T04:41:17;20.70;62.40
80367;DHT22;70058;42.660;23.366;2023-06-10T04:43:43;20.70;62.70
80367;DHT22;70058;42.660;23.366;2023-06-10T04:46:09;20.80;63.10
80367;DHT22;70058;42.660;23.366;2023-06-10T04:48:35;20.90;62.70
80367;DHT22;70058;42.660;23.366;2023-06-10T04:51:03;21.00;62.90
80367;DHT22;70058;42.660;23.366;2023-06-10T04:53:30;21.10;62.60
80367;DHT22;70058;42.660;23.366;2023-06-10T04:55:57;21.40;62.00
80367;DHT22;70058;42.660;23.366;2023-06-10T04:58:23;21.60;60.80
80367;DHT22;70058;42.660;23.366;2023-06-10T05:00:49;21.80;60.00
80367;DHT22;70058;42.660;23.366;2023-06-10T05:03:14;21.90;60.00
80367;DHT22;70058;42.660;23.366;2023-06-10T05:05:40;22.10;60.00
80367;DHT22;70058;42.660;23.366;2023-06-10T05:08:06;22.20;59.60
80367;DHT22;70058;42.660;23.366;2023-06-10T05:10:32;22.30;59.20
80367;DHT22;70058;42.660;23.366;2023-06-10T05:12:59;22.30;59.30
80367;DHT22;70058;42.660;23.366;2023-06-10T05:15:25;22.30;59.50
80367;DHT22;70058;42.660;23.366;2023-06-10T05:17:50;22.30;59.70
80367;DHT22;70058;42.660;23.366;2023-06-10T05:20:17;22.30;59.40
80367;DHT22;70058;42.660;23.366;2023-06-10T05:22:43;22.40;59.00
80367;DHT22;70058;42.660;23.366;2023-06-10T05:25:10;22.40;58.50
80367;DHT22;70058;42.660;23.366;2023-06-10T05:27:36;22.40;58.40
80367;DHT22;70058;42.660;23.366;2023-06-10T05:30:02;22.40;58.30
80367;DHT22;70058;42.660;23.366;2023-06-10T05:32:29;22.50;58.50
80367;DHT22;70058;42.660;23.366;2023-06-10T05:34:55;22.60;58.10
80367;DHT22;70058;42.660;23.366;2023-06-10T05:37:21;22.60;57.70
80367;DHT22;70058;42.660;23.366;2023-06-10T05:39:46;22.70;58.00
80367;DHT22;70058;42.660;23.366;2023-06-10T05:42:12;22.80;57.80
80367;DHT22;70058;42.660;23.366;2023-06-10T05:44:38;23.00;57.60
80367;DHT22;70058;42.660;23.366;2023-06-10T05:47:04;23.10;57.70
80367;DHT22;70058;42.660;23.366;2023-06-10T05:49:29;23.20;56.90
80367;DHT22;70058;42.660;23.366;2023-06-10T05:51:55;23.40;55.80
80367;DHT22;70058;42.660;23.366;2023-06-10T05:54:22;23.50;55.10
80367;DHT22;70058;42.660;23.366;2023-06-10T05:56:48;23.70;54.20
80367;DHT22;70058;42.660;23.366;2023-06-10T05:59:14;23.90;53.80
80367;DHT22;70058;42.660;23.366;2023-06-10T06:01:39;24.20;52.90
80367;DHT22;70058;42.660;23.366;2023-06-10T06:04:05;24.30;52.80
80367;DHT22;70058;42.660;23.366;2023-06-10T06:06:31;24.40;52.70
80367;DHT22;70058;42.660;23.366;2023-06-10T06:08:56;24.40;52.60
80367;DHT22;70058;42.660;23.366;2023-06-10T06:11:22;24.50;52.90
80367;DHT22;70058;42.660;23.366;2023-06-10T06:13:48;24.90;53.30
80367;DHT22;70058;42.660;23.366;2023-06-10T06:16:13;25.20;51.60
80367;DHT22;70058;42.660;23.366;2023-06-10T06:18:39;25.30;50.70
80367;DHT22;70058;42.660;23.366;2023-06-10T06:21:05;25.40;50.40
80367;DHT22;70058;42.660;23.366;2023-06-10T06:23:30;25.50;50.30
80367;DHT22;70058;42.660;23.366;2023-06-10T06:25:56;25.60;50.20
80367;DHT22;70058;42.660;23.366;2023-06-10T06:28:22;25.70;49.60
80367;DHT22;70058;42.660;23.366;2023-06-10T06:30:48;25.80;49.30
80367;DHT22;70058;42.660;23.366;2023-06-10T06:33:13;25.70;49.30
80367;DHT22;70058;42.660;23.366;2023-06-10T06:35:39;25.70;49.40
80367;DHT22;70058;42.660;23.366;2023-06-10T06:38:05;25.70;49.00
80367;DHT22;70058;42.660;23.366;2023-06-10T06:40:31;25.70;48.80
80367;DHT22;70058;42.660;23.366;2023-06-10T06:42:56;25.70;48.00
80367;DHT22;70058;42.660;23.366;2023-06-10T06:45:22;25.80;47.80
80367;DHT22;70058;42.660;23.366;2023-06-10T06:47:48;25.80;47.40
80367;DHT22;70058;42.660;23.366;2023-06-10T06:50:13;25.80;47.00
80367;DHT22;70058;42.660;23.366;2023-06-10T06:52:39;25.80;47.50
80367;DHT22;70058;42.660;23.366;2023-06-10T06:55:05;25.80;47.30
80367;DHT22;70058;42.660;23.366;2023-06-10T06:57:31;25.80;47.50
80367;DHT22;70058;42.660;23.366;2023-06-10T06:59:57;25.70;47.60
80367;DHT22;70058;42.660;23.366;2023-06-10T07:02:22;25.80;47.60
80367;DHT22;70058;42.660;23.366;2023-06-10T07:04:49;26.00;47.20
80367;DHT22;70058;42.660;23.366;2023-06-10T07:07:15;26.10;46.90
80367;DHT22;70058;42.660;23.366;2023-06-10T07:09:41;26.20;45.50
80367;DHT22;70058;42.660;23.366;2023-06-10T07:12:07;26.30;45.60
80367;DHT22;70058;42.660;23.366;2023-06-10T07:14:33;26.50;45.20
80367;DHT22;70058;42.660;23.366;2023-06-10T07:16:58;26.90;45.20
80367;DHT22;70058;42.660;23.366;2023-06-10T07:19:24;27.20;44.60
80367;DHT22;70058;42.660;23.366;2023-06-10T07:21:50;27.60;43.90
80367;DHT22;70058;42.660;23.366;2023-06-10T07:24:16;28.00;43.00
80367;DHT22;70058;42.660;23.366;2023-06-10T07:26:41;28.50;41.70
80367;DHT22;70058;42.660;23.366;2023-06-10T07:29:07;29.20;40.50
80367;DHT22;70058;42.660;23.366;2023-06-10T07:31:32;31.70;37.10
80367;DHT22;70058;42.660;23.366;2023-06-10T07:33:58;32.90;34.00
80367;DHT22;70058;42.660;23.366;2023-06-10T07:36:24;33.10;30.60
80367;DHT22;70058;42.660;23.366;2023-06-10T07:38:53;33.10;30.00
80367;DHT22;70058;42.660;23.366;2023-06-10T07:41:18;34.40;28.20
80367;DHT22;70058;42.660;23.366;2023-06-10T07:43:44;32.30;28.70
80367;DHT22;70058;42.660;23.366;2023-06-10T07:46:10;31.00;30.90
80367;DHT22;70058;42.660;23.366;2023-06-10T07:48:36;32.10;30.00
80367;DHT22;70058;42.660;23.366;2023-06-10T07:51:01;34.80;28.40
80367;DHT22;70058;42.660;23.366;2023-06-10T07:53:28;35.40;27.80
80367;DHT22;70058;42.660;23.366;2023-06-10T07:55:54;36.50;27.20
80367;DHT22;70058;42.660;23.366;2023-06-10T07:58:20;38.70;24.70
80367;DHT22;70058;42.660;23.366;2023-06-10T08:00:47;40.90;23.20
80367;DHT22;70058;42.660;23.366;2023-06-10T08:03:13;42.60;21.20
80367;DHT22;70058;42.660;23.366;2023-06-10T08:05:39;42.30;21.60
80367;DHT22;70058;42.660;23.366;2023-06-10T08:08:05;39.20;22.90
80367;DHT22;70058;42.660;23.366;2023-06-10T08:10:31;41.20;22.00
80367;DHT22;70058;42.660;23.366;2023-06-10T08:12:57;37.40;24.40
80367;DHT22;70058;42.660;23.366;2023-06-10T08:15:22;40.60;22.60
80367;DHT22;70058;42.660;23.366;2023-06-10T08:17:48;43.30;20.60
80367;DHT22;70058;42.660;23.366;2023-06-10T08:20:14;45.00;19.10
80367;DHT22;70058;42.660;23.366;2023-06-10T08:22:40;44.70;18.80
80367;DHT22;70058;42.660;23.366;2023-06-10T08:25:05;46.00;18.10
80367;DHT22;70058;42.660;23.366;2023-06-10T08:27:31;46.90;17.80
80367;DHT22;70058;42.660;23.366;2023-06-10T08:29:57;47.90;17.30
80367;DHT22;70058;42.660;23.366;2023-06-10T08:32:24;49.10;16.80
80367;DHT22;70058;42.660;23.366;2023-06-10T08:34:50;49.80;16.40
80367;DHT22;70058;42.660;23.366;2023-06-10T08:37:16;50.20;16.20
80367;DHT22;70058;42.660;23.366;2023-06-10T08:39:41;51.00;15.60
80367;DHT22;70058;42.660;23.366;2023-06-10T08:44:46;51.00;15.50
80367;DHT22;70058;42.660;23.366;2023-06-10T08:47:16;51.10;15.00
80367;DHT22;70058;42.660;23.366;2023-06-10T08:49:46;50.70;15.20
80367;DHT22;70058;42.660;23.366;2023-06-10T08:52:19;50.80;15.10
80367;DHT22;70058;42.660;23.366;2023-06-10T08:57:17;51.50;14.90
80367;DHT22;70058;42.660;23.366;2023-06-10T08:59:46;52.20;15.30
80367;DHT22;70058;42.660;23.366;2023-06-10T09:02:14;52.80;14.40
80367;DHT22;70058;42.660;23.366;2023-06-10T09:04:42;53.00;14.10
80367;DHT22;70058;42.660;23.366;2023-06-10T09:07:10;52.50;14.40
80367;DHT22;70058;42.660;23.366;2023-06-10T09:09:36;51.90;14.40
80367;DHT22;70058;42.660;23.366;2023-06-10T09:12:03;51.70;14.50
80367;DHT22;70058;42.660;23.366;2023-06-10T09:14:29;52.40;13.80
80367;DHT22;70058;42.660;23.366;2023-06-10T09:16:55;52.20;13.70
80367;DHT22;70058;42.660;23.366;2023-06-10T09:19:25;51.30;14.40
80367;DHT22;70058;42.660;23.366;2023-06-10T09:21:52;48.80;15.70
80367;DHT22;70058;42.660;23.366;2023-06-10T09:24:18;46.20;17.40
80367;DHT22;70058;42.660;23.366;2023-06-10T09:26:44;43.90;18.70
80367;DHT22;70058;42.660;23.366;2023-06-10T09:29:11;41.80;20.20
80367;DHT22;70058;42.660;23.366;2023-06-10T09:31:40;40.10;21.40
80367;DHT22;70058;42.660;23.366;2023-06-10T09:34:11;38.30;22.60
80367;DHT22;70058;42.660;23.366;2023-06-10T09:36:37;36.90;23.50
80367;DHT22;70058;42.660;23.366;2023-06-10T09:39:04;35.80;24.50
80367;DHT22;70058;42.660;23.366;2023-06-10T09:41:34;36.30;24.20
80367;DHT22;70058;42.660;23.366;2023-06-10T09:44:01;38.00;22.80
80367;DHT22;70058;42.660;23.366;2023-06-10T09:46:31;40.80;21.10
80367;DHT22;70058;42.660;23.366;2023-06-10T09:48:58;42.80;19.50
80367;DHT22;70058;42.660;23.366;2023-06-10T09:51:24;43.80;18.70
80367;DHT22;70058;42.660;23.366;2023-06-10T09:53:51;43.50;18.60
80367;DHT22;70058;42.660;23.366;2023-06-10T09:56:18;42.50;20.30
80367;DHT22;70058;42.660;23.366;2023-06-10T09:58:45;42.20;19.30
80367;DHT22;70058;42.660;23.366;2023-06-10T10:01:13;40.90;19.80
80367;DHT22;70058;42.660;23.366;2023-06-10T10:03:47;40.10;20.70
80367;DHT22;70058;42.660;23.366;2023-06-10T10:06:14;40.70;20.90
80367;DHT22;70058;42.660;23.366;2023-06-10T10:08:40;41.20;20.30
80367;DHT22;70058;42.660;23.366;2023-06-10T10:11:06;41.10;19.00
80367;DHT22;70058;42.660;23.366;2023-06-10T10:13:35;40.70;19.60
80367;DHT22;70058;42.660;23.366;2023-06-10T10:16:09;40.20;20.10
80367;DHT22;70058;42.660;23.366;2023-06-10T10:18:39;39.30;20.90
80367;DHT22;70058;42.660;23.366;2023-06-10T10:21:11;37.80;21.50
80367;DHT22;70058;42.660;23.366;2023-06-10T10:26:13;35.40;22.90
80367;DHT22;70058;42.660;23.366;2023-06-10T10:28:45;33.60;25.30
80367;DHT22;70058;42.660;23.366;2023-06-10T10:31:16;33.30;26.20
80367;DHT22;70058;42.660;23.366;2023-06-10T10:34:00;32.20;26.50
80367;DHT22;70058;42.660;23.366;2023-06-10T10:36:27;30.90;28.00
80367;DHT22;70058;42.660;23.366;2023-06-10T10:38:54;30.50;28.30
80367;DHT22;70058;42.660;23.366;2023-06-10T10:41:20;29.00;29.20
80367;DHT22;70058;42.660;23.366;2023-06-10T10:43:47;28.70;30.90
80367;DHT22;70058;42.660;23.366;2023-06-10T10:46:16;29.10;29.70
80367;DHT22;70058;42.660;23.366;2023-06-10T10:48:42;28.80;29.90
80367;DHT22;70058;42.660;23.366;2023-06-10T10:51:09;29.70;29.30
80367;DHT22;70058;42.660;23.366;2023-06-10T10:53:37;30.40;28.30
80367;DHT22;70058;42.660;23.366;2023-06-10T10:56:12;30.90;27.90
80367;DHT22;70058;42.660;23.366;2023-06-10T10:58:38;31.30;27.20
80367;DHT22;70058;42.660;23.366;2023-06-10T11:01:14;31.60;26.80
80367;DHT22;70058;42.660;23.366;2023-06-10T11:03:46;29.50;28.20
80367;DHT22;70058;42.660;23.366;2023-06-10T11:06:17;29.20;30.10
80367;DHT22;70058;42.660;23.366;2023-06-10T11:11:23;30.40;28.90
80367;DHT22;70058;42.660;23.366;2023-06-10T11:14:27;30.90;28.80
80367;DHT22;70058;42.660;23.366;2023-06-10T11:16:57;30.20;29.10
80367;DHT22;70058;42.660;23.366;2023-06-10T11:19:36;30.60;28.90
80367;DHT22;70058;42.660;23.366;2023-06-10T11:22:06;30.70;28.00
80367;DHT22;70058;42.660;23.366;2023-06-10T11:24:32;29.70;29.60
80367;DHT22;70058;42.660;23.366;2023-06-10T11:27:21;29.80;30.70
80367;DHT22;70058;42.660;23.366;2023-06-10T11:32:33;30.40;30.00
80367;DHT22;70058;42.660;23.366;2023-06-10T11:35:02;30.10;30.00
80367;DHT22;70058;42.660;23.366;2023-06-10T11:37:28;29.80;30.60
80367;DHT22;70058;42.660;23.366;2023-06-10T11:39:55;29.10;30.90
80367;DHT22;70058;42.660;23.366;2023-06-10T11:42:22;29.10;30.20
80367;DHT22;70058;42.660;23.366;2023-06-10T11:44:52;28.90;30.10
80367;DHT22;70058;42.660;23.366;2023-06-10T11:47:19;29.20;29.50
80367;DHT22;70058;42.660;23.366;2023-06-10T11:49:46;29.50;29.60
80367;DHT22;70058;42.660;23.366;2023-06-10T11:52:26;30.00;29.30
80367;DHT22;70058;42.660;23.366;2023-06-10T11:54:54;30.20;29.00
80367;DHT22;70058;42.660;23.366;2023-06-10T11:57:20;29.80;28.90
80367;DHT22;70058;42.660;23.366;2023-06-10T11:59:46;29.40;28.50
80367;DHT22;70058;42.660;23.366;2023-06-10T12:02:16;29.40;29.40
80367;DHT22;70058;42.660;23.366;2023-06-10T12:04:42;29.50;29.00
80367;DHT22;70058;42.660;23.366;2023-06-10T12:07:07;30.00;27.70
80367;DHT22;70058;42.660;23.366;2023-06-10T12:09:33;30.40;27.70
80367;DHT22;70058;42.660;23.366;2023-06-10T12:12:01;30.60;27.60
80367;DHT22;70058;42.660;23.366;2023-06-10T12:19:57;31.50;26.00
80367;DHT22;70058;42.660;23.366;2023-06-10T12:22:23;31.60;25.70
80367;DHT22;70058;42.660;23.366;2023-06-10T12:25:01;31.80;26.10
80367;DHT22;70058;42.660;23.366;2023-06-10T12:27:27;31.00;25.60
80367;DHT22;70058;42.660;23.366;2023-06-10T12:29:56;30.60;24.90
80367;DHT22;70058;42.660;23.366;2023-06-10T12:32:46;29.20;25.80
80367;DHT22;70058;42.660;23.366;2023-06-10T12:35:16;29.90;26.00
80367;DHT22;70058;42.660;23.366;2023-06-10T12:37:54;30.10;26.20
80367;DHT22;70058;42.660;23.366;2023-06-10T12:40:29;30.70;25.80
80367;DHT22;70058;42.660;23.366;2023-06-10T12:42:57;29.80;26.10
80367;DHT22;70058;42.660;23.366;2023-06-10T12:45:33;30.10;26.40
80367;DHT22;70058;42.660;23.366;2023-06-10T12:50:32;30.70;25.40
80367;DHT22;70058;42.660;23.366;2023-06-10T12:52:59;30.90;24.40
80367;DHT22;70058;42.660;23.366;2023-06-10T12:55:25;30.60;25.20
80367;DHT22;70058;42.660;23.366;2023-06-10T12:57:50;30.40;25.00
80367;DHT22;70058;42.660;23.366;2023-06-10T13:00:19;30.80;25.50
80367;DHT22;70058;42.660;23.366;2023-06-10T13:02:45;30.80;25.10
80367;DHT22;70058;42.660;23.366;2023-06-10T13:05:11;30.50;25.40
80367;DHT22;70058;42.660;23.366;2023-06-10T13:07:36;30.70;25.70
80367;DHT22;70058;42.660;23.366;2023-06-10T13:10:03;30.80;25.40
80367;DHT22;70058;42.660;23.366;2023-06-10T13:12:29;30.80;25.90
80367;DHT22;70058;42.660;23.366;2023-06-10T13:14:56;30.80;25.40
80367;DHT22;70058;42.660;23.366;2023-06-10T13:17:22;30.80;26.00
80367;DHT22;70058;42.660;23.366;2023-06-10T13:19:48;30.40;29.20
80367;DHT22;70058;42.660;23.366;2023-06-10T13:22:14;29.80;31.20
80367;DHT22;70058;42.660;23.366;2023-06-10T13:24:40;29.50;31.90
80367;DHT22;70058;42.660;23.366;2023-06-10T13:27:06;28.80;33.10
80367;DHT22;70058;42.660;23.366;2023-06-10T13:29:32;28.50;34.00
80367;DHT22;70058;42.660;23.366;2023-06-10T13:31:58;28.00;35.20
80367;DHT22;70058;42.660;23.366;2023-06-10T13:34:24;27.60;36.40
80367;DHT22;70058;42.660;23.366;2023-06-10T13:36:50;27.50;37.20
80367;DHT22;70058;42.660;23.366;2023-06-10T13:39:15;27.50;37.40
80367;DHT22;70058;42.660;23.366;2023-06-10T13:41:41;27.10;38.50
80367;DHT22;70058;42.660;23.366;2023-06-10T13:44:07;27.10;39.50
80367;DHT22;70058;42.660;23.366;2023-06-10T13:46:33;27.00;40.00
80367;DHT22;70058;42.660;23.366;2023-06-10T13:48:58;27.00;40.30
80367;DHT22;70058;42.660;23.366;2023-06-10T13:51:24;26.90;41.10
80367;DHT22;70058;42.660;23.366;2023-06-10T13:53:50;26.90;42.20
80367;DHT22;70058;42.660;23.366;2023-06-10T13:56:18;26.90;43.20
80367;DHT22;70058;42.660;23.366;2023-06-10T13:58:43;27.00;43.10
80367;DHT22;70058;42.660;23.366;2023-06-10T14:01:09;27.10;42.00
80367;DHT22;70058;42.660;23.366;2023-06-10T14:03:35;27.10;42.10
80367;DHT22;70058;42.660;23.366;2023-06-10T14:06:01;27.30;41.80
80367;DHT22;70058;42.660;23.366;2023-06-10T14:08:27;27.40;41.30
80367;DHT22;70058;42.660;23.366;2023-06-10T14:10:53;27.50;41.50
80367;DHT22;70058;42.660;23.366;2023-06-10T14:13:19;27.70;41.40
80367;DHT22;70058;42.660;23.366;2023-06-10T14:15:45;27.70;40.90
80367;DHT22;70058;42.660;23.366;2023-06-10T14:18:10;27.70;41.10
80367;DHT22;70058;42.660;23.366;2023-06-10T14:20:36;27.70;41.80
80367;DHT22;70058;42.660;23.366;2023-06-10T14:23:02;27.70;40.70
80367;DHT22;70058;42.660;23.366;2023-06-10T14:25:28;27.70;40.30
80367;DHT22;70058;42.660;23.366;2023-06-10T14:27:53;27.70;40.30
80367;DHT22;70058;42.660;23.366;2023-06-10T14:30:19;27.70;40.90
80367;DHT22;70058;42.660;23.366;2023-06-10T14:32:45;27.80;40.80
80367;DHT22;70058;42.660;23.366;2023-06-10T14:35:10;27.80;40.50
80367;DHT22;70058;42.660;23.366;2023-06-10T14:37:36;27.90;40.10
80367;DHT22;70058;42.660;23.366;2023-06-10T14:40:03;28.00;40.30
80367;DHT22;70058;42.660;23.366;2023-06-10T14:42:30;28.10;39.60
80367;DHT22;70058;42.660;23.366;2023-06-10T14:44:57;28.20;38.30
80367;DHT22;70058;42.660;23.366;2023-06-10T14:47:23;28.20;38.20
80367;DHT22;70058;42.660;23.366;2023-06-10T14:49:49;28.30;38.00
80367;DHT22;70058;42.660;23.366;2023-06-10T14:52:15;28.40;38.10
80367;DHT22;70058;42.660;23.366;2023-06-10T14:54:41;28.50;38.70
80367;DHT22;70058;42.660;23.366;2023-06-10T14:57:07;28.60;37.50
80367;DHT22;70058;42.660;23.366;2023-06-10T14:59:33;28.50;37.10
80367;DHT22;70058;42.660;23.366;2023-06-10T15:02:00;27.60;37.90
80367;DHT22;70058;42.660;23.366;2023-06-10T15:04:27;27.60;37.10
80367;DHT22;70058;42.660;23.366;2023-06-10T15:06:53;27.80;37.30
80367;DHT22;70058;42.660;23.366;2023-06-10T15:09:19;27.90;36.70
80367;DHT22;70058;42.660;23.366;2023-06-10T15:11:45;28.00;37.40
80367;DHT22;70058;42.660;23.366;2023-06-10T15:14:11;28.10;37.50
80367;DHT22;70058;42.660;23.366;2023-06-10T15:16:37;28.10;37.60
80367;DHT22;70058;42.660;23.366;2023-06-10T15:19:02;28.10;37.70
80367;DHT22;70058;42.660;23.366;2023-06-10T15:21:28;28.00;36.80
80367;DHT22;70058;42.660;23.366;2023-06-10T15:23:54;27.90;37.00
80367;DHT22;70058;42.660;23.366;2023-06-10T15:26:20;27.80;37.30
80367;DHT22;70058;42.660;23.366;2023-06-10T15:28:46;27.80;38.30
80367;DHT22;70058;42.660;23.366;2023-06-10T15:31:12;27.90;37.60
80367;DHT22;70058;42.660;23.366;2023-06-10T15:33:37;27.90;37.40
80367;DHT22;70058;42.660;23.366;2023-06-10T15:36:03;27.80;37.40
80367;DHT22;70058;42.660;23.366;2023-06-10T15:38:30;27.80;37.90
80367;DHT22;70058;42.660;23.366;2023-06-10T15:40:56;27.70;37.80
80367;DHT22;70058;42.660;23.366;2023-06-10T15:43:21;27.50;37.30